sensor_id;sensor_type;location;lat;lon;timestamp;P1;durP1;ratioP1;P2;durP2;ratioP2
78120;SDS011;67375;44.802;10.332;2023-02-01T00:01:43;12.05;;;7.03;;
78120;SDS011;67375;44.802;10.332;2023-02-01T00:04:08;12.73;;;7.25;;
78120;SDS011;67375;44.802;10.332;2023-02-01T00:06:34;12.57;;;7.50;;
78120;SDS011;67375;44.802;10.332;2023-02-01T00:08:59;11.90;;;7.32;;
78120;SDS011;67375;44.802;10.332;2023-02-01T00:11:25;11.57;;;7.07;;
78120;SDS011;67375;44.802;10.332;2023-02-01T00:13:50;12.10;;;7.90;;
78120;SDS011;67375;44.802;10.332;2023-02-01T00:21:12;12.07;;;7.15;;
78120;SDS011;67375;44.802;10.332;2023-02-01T00:23:39;11.73;;;6.30;;
78120;SDS011;67375;44.802;10.332;2023-02-01T00:26:06;11.43;;;7.68;;
78120;SDS011;67375;44.802;10.332;2023-02-01T00:28:33;11.82;;;7.50;;
78120;SDS011;67375;44.802;10.332;2023-02-01T00:31:02;11.40;;;6.75;;
78120;SDS011;67375;44.802;10.332;2023-02-01T00:33:29;12.02;;;6.85;;
78120;SDS011;67375;44.802;10.332;2023-02-01T00:35:59;12.65;;;7.45;;
78120;SDS011;67375;44.802;10.332;2023-02-01T00:38:26;11.32;;;6.75;;
78120;SDS011;67375;44.802;10.332;2023-02-01T00:40:53;12.65;;;6.75;;
78120;SDS011;67375;44.802;10.332;2023-02-01T00:43:19;11.05;;;6.13;;
78120;SDS011;67375;44.802;10.332;2023-02-01T00:45:47;10.70;;;7.10;;
78120;SDS011;67375;44.802;10.332;2023-02-01T00:48:12;12.65;;;7.07;;
78120;SDS011;67375;44.802;10.332;2023-02-01T00:50:44;11.75;;;6.32;;
78120;SDS011;67375;44.802;10.332;2023-02-01T00:53:10;11.30;;;6.85;;
78120;SDS011;67375;44.802;10.332;2023-02-01T00:55:35;12.02;;;6.13;;
78120;SDS011;67375;44.802;10.332;2023-02-01T00:58:01;12.68;;;6.53;;
78120;SDS011;67375;44.802;10.332;2023-02-01T01:00:26;10.95;;;7.07;;
78120;SDS011;67375;44.802;10.332;2023-02-01T01:02:52;13.85;;;6.82;;
78120;SDS011;67375;44.802;10.332;2023-02-01T01:05:18;10.65;;;5.95;;
78120;SDS011;67375;44.802;10.332;2023-02-01T01:07:43;11.88;;;6.53;;
78120;SDS011;67375;44.802;10.332;2023-02-01T01:10:09;12.25;;;6.40;;
78120;SDS011;67375;44.802;10.332;2023-02-01T01:12:35;11.50;;;5.95;;
78120;SDS011;67375;44.802;10.332;2023-02-01T01:15:00;9.90;;;6.47;;
78120;SDS011;67375;44.802;10.332;2023-02-01T01:17:26;11.30;;;7.00;;
78120;SDS011;67375;44.802;10.332;2023-02-01T01:19:51;11.25;;;6.97;;
78120;SDS011;67375;44.802;10.332;2023-02-01T01:22:16;10.80;;;6.47;;
78120;SDS011;67375;44.802;10.332;2023-02-01T01:24:43;9.27;;;6.30;;
78120;SDS011;67375;44.802;10.332;2023-02-01T01:27:08;10.93;;;6.63;;
78120;SDS011;67375;44.802;10.332;2023-02-01T01:29:34;9.82;;;5.97;;
78120;SDS011;67375;44.802;10.332;2023-02-01T01:31:59;10.35;;;6.38;;
78120;SDS011;67375;44.802;10.332;2023-02-01T01:34:25;9.25;;;5.93;;
78120;SDS011;67375;44.802;10.332;2023-02-01T01:36:50;10.25;;;5.75;;
78120;SDS011;67375;44.802;10.332;2023-02-01T01:39:16;10.60;;;5.97;;
78120;SDS011;67375;44.802;10.332;2023-02-01T01:41:41;9.98;;;5.97;;
78120;SDS011;67375;44.802;10.332;2023-02-01T01:44:53;9.98;;;5.82;;
78120;SDS011;67375;44.802;10.332;2023-02-01T01:47:10;9.07;;;5.13;;
78120;SDS011;67375;44.802;10.332;2023-02-01T01:49:35;9.18;;;5.32;;
78120;SDS011;67375;44.802;10.332;2023-02-01T01:52:03;10.85;;;5.95;;
78120;SDS011;67375;44.802;10.332;2023-02-01T01:54:29;10.55;;;6.43;;
78120;SDS011;67375;44.802;10.332;2023-02-01T01:56:57;9.05;;;6.03;;
78120;SDS011;67375;44.802;10.332;2023-02-01T01:59:27;9.10;;;6.10;;
78120;SDS011;67375;44.802;10.332;2023-02-01T02:04:19;8.27;;;4.85;;
78120;SDS011;67375;44.802;10.332;2023-02-01T02:06:45;11.52;;;5.95;;
78120;SDS011;67375;44.802;10.332;2023-02-01T02:09:16;9.10;;;5.05;;
78120;SDS011;67375;44.802;10.332;2023-02-01T02:11:42;10.38;;;5.68;;
78120;SDS011;67375;44.802;10.332;2023-02-01T02:14:08;8.90;;;5.78;;
78120;SDS011;67375;44.802;10.332;2023-02-01T02:22:17;9.30;;;5.53;;
78120;SDS011;67375;44.802;10.332;2023-02-01T02:24:58;8.32;;;4.57;;
78120;SDS011;67375;44.802;10.332;2023-02-01T02:36:29;9.18;;;5.53;;
78120;SDS011;67375;44.802;10.332;2023-02-01T02:48:17;8.80;;;4.72;;
78120;SDS011;67375;44.802;10.332;2023-02-01T02:50:44;9.15;;;5.05;;
78120;SDS011;67375;44.802;10.332;2023-02-01T02:53:36;7.93;;;4.40;;
78120;SDS011;67375;44.802;10.332;2023-02-01T02:56:41;9.40;;;4.53;;
78120;SDS011;67375;44.802;10.332;2023-02-01T02:59:26;7.35;;;4.13;;
78120;SDS011;67375;44.802;10.332;2023-02-01T03:02:13;7.55;;;4.15;;
78120;SDS011;67375;44.802;10.332;2023-02-01T03:04:58;8.52;;;4.78;;
78120;SDS011;67375;44.802;10.332;2023-02-01T03:10:10;8.10;;;4.85;;
78120;SDS011;67375;44.802;10.332;2023-02-01T03:12:42;9.40;;;5.55;;
78120;SDS011;67375;44.802;10.332;2023-02-01T03:15:24;10.30;;;4.63;;
78120;SDS011;67375;44.802;10.332;2023-02-01T03:18:00;7.03;;;4.00;;
78120;SDS011;67375;44.802;10.332;2023-02-01T03:20:28;9.60;;;4.82;;
78120;SDS011;67375;44.802;10.332;2023-02-01T03:22:54;7.32;;;4.10;;
78120;SDS011;67375;44.802;10.332;2023-02-01T03:25:23;7.75;;;4.00;;
78120;SDS011;67375;44.802;10.332;2023-02-01T03:30:26;8.43;;;5.05;;
78120;SDS011;67375;44.802;10.332;2023-02-01T03:32:55;8.10;;;4.70;;
78120;SDS011;67375;44.802;10.332;2023-02-01T03:38:03;8.95;;;5.10;;
78120;SDS011;67375;44.802;10.332;2023-02-01T03:40:53;8.23;;;3.92;;
78120;SDS011;67375;44.802;10.332;2023-02-01T03:43:22;9.30;;;4.50;;
78120;SDS011;67375;44.802;10.332;2023-02-01T03:45:54;7.60;;;4.07;;
78120;SDS011;67375;44.802;10.332;2023-02-01T03:48:25;7.78;;;4.25;;
78120;SDS011;67375;44.802;10.332;2023-02-01T03:50:53;7.30;;;4.05;;
78120;SDS011;67375;44.802;10.332;2023-02-01T03:53:23;9.35;;;4.63;;
78120;SDS011;67375;44.802;10.332;2023-02-01T03:55:50;7.25;;;3.65;;
78120;SDS011;67375;44.802;10.332;2023-02-01T03:58:19;7.90;;;3.97;;
78120;SDS011;67375;44.802;10.332;2023-02-01T04:00:50;7.50;;;3.80;;
78120;SDS011;67375;44.802;10.332;2023-02-01T04:03:18;7.15;;;4.10;;
78120;SDS011;67375;44.802;10.332;2023-02-01T04:05:43;7.90;;;3.72;;
78120;SDS011;67375;44.802;10.332;2023-02-01T04:08:08;8.40;;;4.60;;
78120;SDS011;67375;44.802;10.332;2023-02-01T04:10:34;7.82;;;4.00;;
78120;SDS011;67375;44.802;10.332;2023-02-01T04:12:59;7.72;;;3.75;;
78120;SDS011;67375;44.802;10.332;2023-02-01T04:15:25;7.25;;;3.60;;
78120;SDS011;67375;44.802;10.332;2023-02-01T04:17:50;7.22;;;4.10;;
78120;SDS011;67375;44.802;10.332;2023-02-01T04:20:15;7.10;;;3.40;;
78120;SDS011;67375;44.802;10.332;2023-02-01T04:22:41;6.25;;;3.05;;
78120;SDS011;67375;44.802;10.332;2023-02-01T04:25:07;7.28;;;3.67;;
78120;SDS011;67375;44.802;10.332;2023-02-01T04:27:33;8.40;;;4.10;;
78120;SDS011;67375;44.802;10.332;2023-02-01T04:29:58;7.70;;;4.05;;
78120;SDS011;67375;44.802;10.332;2023-02-01T04:32:24;7.18;;;3.08;;
78120;SDS011;67375;44.802;10.332;2023-02-01T04:34:49;8.55;;;3.58;;
78120;SDS011;67375;44.802;10.332;2023-02-01T04:37:15;7.22;;;3.90;;
78120;SDS011;67375;44.802;10.332;2023-02-01T04:39:40;6.95;;;3.55;;
78120;SDS011;67375;44.802;10.332;2023-02-01T04:42:05;6.65;;;3.55;;
78120;SDS011;67375;44.802;10.332;2023-02-01T04:44:31;7.10;;;3.63;;
78120;SDS011;67375;44.802;10.332;2023-02-01T04:46:56;6.80;;;3.03;;
78120;SDS011;67375;44.802;10.332;2023-02-01T04:49:21;6.93;;;3.38;;
78120;SDS011;67375;44.802;10.332;2023-02-01T04:51:47;5.85;;;3.25;;
78120;SDS011;67375;44.802;10.332;2023-02-01T04:54:13;6.40;;;3.60;;
78120;SDS011;67375;44.802;10.332;2023-02-01T04:56:38;6.22;;;2.90;;
78120;SDS011;67375;44.802;10.332;2023-02-01T04:59:04;6.35;;;2.70;;
78120;SDS011;67375;44.802;10.332;2023-02-01T05:01:30;6.10;;;2.80;;
78120;SDS011;67375;44.802;10.332;2023-02-01T05:03:56;7.55;;;3.47;;
78120;SDS011;67375;44.802;10.332;2023-02-01T05:06:22;7.30;;;3.15;;
78120;SDS011;67375;44.802;10.332;2023-02-01T05:08:48;7.65;;;3.55;;
78120;SDS011;67375;44.802;10.332;2023-02-01T05:11:14;7.45;;;3.42;;
78120;SDS011;67375;44.802;10.332;2023-02-01T05:14:08;5.93;;;2.45;;
78120;SDS011;67375;44.802;10.332;2023-02-01T05:16:34;7.20;;;3.08;;
78120;SDS011;67375;44.802;10.332;2023-02-01T05:19:00;6.05;;;2.97;;
78120;SDS011;67375;44.802;10.332;2023-02-01T05:21:25;5.32;;;2.45;;
78120;SDS011;67375;44.802;10.332;2023-02-01T05:23:51;7.55;;;2.95;;
78120;SDS011;67375;44.802;10.332;2023-02-01T05:26:35;6.15;;;3.22;;
78120;SDS011;67375;44.802;10.332;2023-02-01T05:29:03;6.82;;;3.20;;
78120;SDS011;67375;44.802;10.332;2023-02-01T05:31:32;7.75;;;3.47;;
78120;SDS011;67375;44.802;10.332;2023-02-01T05:33:57;6.05;;;3.00;;
78120;SDS011;67375;44.802;10.332;2023-02-01T05:36:23;6.10;;;2.60;;
78120;SDS011;67375;44.802;10.332;2023-02-01T05:38:48;5.85;;;3.30;;
78120;SDS011;67375;44.802;10.332;2023-02-01T05:41:14;8.07;;;3.00;;
78120;SDS011;67375;44.802;10.332;2023-02-01T05:43:39;6.40;;;3.67;;
78120;SDS011;67375;44.802;10.332;2023-02-01T05:46:05;6.70;;;3.15;;
78120;SDS011;67375;44.802;10.332;2023-02-01T05:48:30;7.75;;;3.22;;
78120;SDS011;67375;44.802;10.332;2023-02-01T05:50:56;8.48;;;3.10;;
78120;SDS011;67375;44.802;10.332;2023-02-01T05:53:21;6.40;;;2.80;;
78120;SDS011;67375;44.802;10.332;2023-02-01T05:55:47;9.98;;;2.85;;
78120;SDS011;67375;44.802;10.332;2023-02-01T05:58:13;6.30;;;3.28;;
78120;SDS011;67375;44.802;10.332;2023-02-01T06:00:38;8.30;;;3.10;;
78120;SDS011;67375;44.802;10.332;2023-02-01T06:03:04;7.00;;;3.80;;
78120;SDS011;67375;44.802;10.332;2023-02-01T06:05:29;6.45;;;2.78;;
78120;SDS011;67375;44.802;10.332;2023-02-01T06:07:55;6.05;;;2.90;;
78120;SDS011;67375;44.802;10.332;2023-02-01T06:10:20;5.90;;;3.20;;
78120;SDS011;67375;44.802;10.332;2023-02-01T06:12:46;6.75;;;3.03;;
78120;SDS011;67375;44.802;10.332;2023-02-01T06:15:12;8.98;;;3.15;;
78120;SDS011;67375;44.802;10.332;2023-02-01T06:17:40;7.38;;;4.28;;
78120;SDS011;67375;44.802;10.332;2023-02-01T06:20:08;7.05;;;3.00;;
78120;SDS011;67375;44.802;10.332;2023-02-01T06:22:34;6.47;;;3.22;;
78120;SDS011;67375;44.802;10.332;2023-02-01T06:25:00;7.32;;;3.55;;
78120;SDS011;67375;44.802;10.332;2023-02-01T06:27:27;5.75;;;3.00;;
78120;SDS011;67375;44.802;10.332;2023-02-01T06:29:53;10.10;;;3.40;;
78120;SDS011;67375;44.802;10.332;2023-02-01T06:32:20;7.43;;;3.50;;
78120;SDS011;67375;44.802;10.332;2023-02-01T06:34:46;7.03;;;2.80;;
78120;SDS011;67375;44.802;10.332;2023-02-01T06:37:11;7.00;;;3.30;;
78120;SDS011;67375;44.802;10.332;2023-02-01T06:39:37;6.85;;;2.85;;
78120;SDS011;67375;44.802;10.332;2023-02-01T06:42:03;7.47;;;2.80;;
78120;SDS011;67375;44.802;10.332;2023-02-01T06:44:28;13.13;;;5.35;;
78120;SDS011;67375;44.802;10.332;2023-02-01T06:46:54;13.50;;;5.65;;
78120;SDS011;67375;44.802;10.332;2023-02-01T06:49:20;18.75;;;6.70;;
78120;SDS011;67375;44.802;10.332;2023-02-01T06:51:45;18.33;;;7.57;;
78120;SDS011;67375;44.802;10.332;2023-02-01T06:54:10;20.88;;;6.40;;
78120;SDS011;67375;44.802;10.332;2023-02-01T06:56:36;19.27;;;5.90;;
78120;SDS011;67375;44.802;10.332;2023-02-01T06:59:03;24.42;;;5.95;;
78120;SDS011;67375;44.802;10.332;2023-02-01T07:01:32;23.88;;;6.30;;
78120;SDS011;67375;44.802;10.332;2023-02-01T07:03:57;20.08;;;6.18;;
78120;SDS011;67375;44.802;10.332;2023-02-01T07:06:23;15.43;;;5.32;;
78120;SDS011;67375;44.802;10.332;2023-02-01T07:08:48;18.45;;;5.80;;
78120;SDS011;67375;44.802;10.332;2023-02-01T07:11:14;16.40;;;4.53;;
78120;SDS011;67375;44.802;10.332;2023-02-01T07:13:41;20.30;;;6.25;;
78120;SDS011;67375;44.802;10.332;2023-02-01T07:16:08;19.40;;;5.22;;
78120;SDS011;67375;44.802;10.332;2023-02-01T07:18:36;15.27;;;5.00;;
78120;SDS011;67375;44.802;10.332;2023-02-01T07:21:02;14.05;;;4.38;;
78120;SDS011;67375;44.802;10.332;2023-02-01T07:23:28;14.13;;;4.72;;
78120;SDS011;67375;44.802;10.332;2023-02-01T07:25:54;20.65;;;4.20;;
78120;SDS011;67375;44.802;10.332;2023-02-01T07:28:24;12.48;;;4.10;;
78120;SDS011;67375;44.802;10.332;2023-02-01T07:30:50;14.35;;;3.78;;
78120;SDS011;67375;44.802;10.332;2023-02-01T07:33:19;15.05;;;4.97;;
78120;SDS011;67375;44.802;10.332;2023-02-01T07:35:46;12.63;;;4.93;;
78120;SDS011;67375;44.802;10.332;2023-02-01T07:38:12;14.15;;;4.10;;
78120;SDS011;67375;44.802;10.332;2023-02-01T07:40:38;11.93;;;3.88;;
78120;SDS011;67375;44.802;10.332;2023-02-01T07:43:03;15.13;;;4.47;;
78120;SDS011;67375;44.802;10.332;2023-02-01T07:45:32;14.88;;;3.58;;
78120;SDS011;67375;44.802;10.332;2023-02-01T07:47:57;12.98;;;3.67;;
78120;SDS011;67375;44.802;10.332;2023-02-01T07:50:23;12.43;;;3.88;;
78120;SDS011;67375;44.802;10.332;2023-02-01T07:52:48;11.30;;;3.47;;
78120;SDS011;67375;44.802;10.332;2023-02-01T07:55:13;11.10;;;3.38;;
78120;SDS011;67375;44.802;10.332;2023-02-01T07:57:39;11.93;;;3.88;;
78120;SDS011;67375;44.802;10.332;2023-02-01T08:00:04;12.40;;;3.28;;
78120;SDS011;67375;44.802;10.332;2023-02-01T08:02:49;8.82;;;3.65;;
78120;SDS011;67375;44.802;10.332;2023-02-01T08:05:14;11.85;;;3.85;;
78120;SDS011;67375;44.802;10.332;2023-02-01T08:07:39;10.52;;;3.55;;
78120;SDS011;67375;44.802;10.332;2023-02-01T08:10:05;10.45;;;3.25;;
78120;SDS011;67375;44.802;10.332;2023-02-01T08:12:35;10.70;;;3.53;;
78120;SDS011;67375;44.802;10.332;2023-02-01T08:15:01;14.60;;;4.63;;
78120;SDS011;67375;44.802;10.332;2023-02-01T08:17:27;11.60;;;4.65;;
78120;SDS011;67375;44.802;10.332;2023-02-01T08:19:53;11.57;;;3.17;;
78120;SDS011;67375;44.802;10.332;2023-02-01T08:22:18;10.13;;;3.45;;
78120;SDS011;67375;44.802;10.332;2023-02-01T08:24:44;9.35;;;4.15;;
78120;SDS011;67375;44.802;10.332;2023-02-01T08:27:13;9.73;;;3.83;;
78120;SDS011;67375;44.802;10.332;2023-02-01T08:29:38;9.00;;;2.85;;
78120;SDS011;67375;44.802;10.332;2023-02-01T08:32:04;11.45;;;3.55;;
78120;SDS011;67375;44.802;10.332;2023-02-01T08:34:29;10.35;;;3.72;;
78120;SDS011;67375;44.802;10.332;2023-02-01T08:36:55;8.57;;;3.88;;
78120;SDS011;67375;44.802;10.332;2023-02-01T08:39:24;14.75;;;5.10;;
78120;SDS011;67375;44.802;10.332;2023-02-01T08:41:50;13.23;;;4.55;;
78120;SDS011;67375;44.802;10.332;2023-02-01T08:44:35;11.10;;;3.92;;
78120;SDS011;67375;44.802;10.332;2023-02-01T08:47:02;11.65;;;5.32;;
78120;SDS011;67375;44.802;10.332;2023-02-01T08:51:53;11.27;;;4.93;;
78120;SDS011;67375;44.802;10.332;2023-02-01T08:54:20;10.63;;;4.07;;
78120;SDS011;67375;44.802;10.332;2023-02-01T08:56:46;12.45;;;5.03;;
78120;SDS011;67375;44.802;10.332;2023-02-01T08:59:11;11.18;;;4.82;;
78120;SDS011;67375;44.802;10.332;2023-02-01T09:01:37;9.80;;;4.72;;
78120;SDS011;67375;44.802;10.332;2023-02-01T09:04:02;14.15;;;5.72;;
78120;SDS011;67375;44.802;10.332;2023-02-01T09:06:27;12.75;;;5.95;;
78120;SDS011;67375;44.802;10.332;2023-02-01T09:08:53;13.23;;;5.78;;
78120;SDS011;67375;44.802;10.332;2023-02-01T09:11:18;12.45;;;6.32;;
78120;SDS011;67375;44.802;10.332;2023-02-01T09:13:44;15.05;;;6.72;;
78120;SDS011;67375;44.802;10.332;2023-02-01T09:16:10;14.80;;;6.00;;
78120;SDS011;67375;44.802;10.332;2023-02-01T09:18:36;14.63;;;7.20;;
78120;SDS011;67375;44.802;10.332;2023-02-01T09:21:05;15.15;;;7.22;;
78120;SDS011;67375;44.802;10.332;2023-02-01T09:23:31;14.27;;;7.00;;
78120;SDS011;67375;44.802;10.332;2023-02-01T09:26:00;15.80;;;7.55;;
78120;SDS011;67375;44.802;10.332;2023-02-01T09:28:27;13.60;;;6.50;;
78120;SDS011;67375;44.802;10.332;2023-02-01T09:30:59;14.25;;;7.05;;
78120;SDS011;67375;44.802;10.332;2023-02-01T09:33:26;16.00;;;8.30;;
78120;SDS011;67375;44.802;10.332;2023-02-01T09:38:25;13.90;;;7.68;;
78120;SDS011;67375;44.802;10.332;2023-02-01T09:43:35;14.50;;;7.28;;
78120;SDS011;67375;44.802;10.332;2023-02-01T09:48:55;14.10;;;6.90;;
78120;SDS011;67375;44.802;10.332;2023-02-01T09:51:24;16.00;;;6.90;;
78120;SDS011;67375;44.802;10.332;2023-02-01T09:54:05;16.20;;;7.53;;
78120;SDS011;67375;44.802;10.332;2023-02-01T09:56:41;13.93;;;7.40;;
78120;SDS011;67375;44.802;10.332;2023-02-01T09:59:22;12.73;;;7.70;;
78120;SDS011;67375;44.802;10.332;2023-02-01T10:02:00;13.70;;;7.60;;
78120;SDS011;67375;44.802;10.332;2023-02-01T10:04:28;12.98;;;7.43;;
78120;SDS011;67375;44.802;10.332;2023-02-01T10:23:30;13.02;;;6.50;;
78120;SDS011;67375;44.802;10.332;2023-02-01T10:26:20;13.18;;;7.30;;
78120;SDS011;67375;44.802;10.332;2023-02-01T10:28:51;12.75;;;6.60;;
78120;SDS011;67375;44.802;10.332;2023-02-01T10:31:18;16.52;;;7.75;;
78120;SDS011;67375;44.802;10.332;2023-02-01T10:33:48;15.70;;;7.70;;
78120;SDS011;67375;44.802;10.332;2023-02-01T10:39:03;13.40;;;7.28;;
78120;SDS011;67375;44.802;10.332;2023-02-01T10:41:33;12.93;;;7.22;;
78120;SDS011;67375;44.802;10.332;2023-02-01T10:44:02;13.65;;;7.60;;
78120;SDS011;67375;44.802;10.332;2023-02-01T10:46:29;14.57;;;8.18;;
78120;SDS011;67375;44.802;10.332;2023-02-01T10:48:56;14.73;;;7.80;;
78120;SDS011;67375;44.802;10.332;2023-02-01T10:54:18;14.27;;;7.70;;
78120;SDS011;67375;44.802;10.332;2023-02-01T10:56:45;15.10;;;7.07;;
78120;SDS011;67375;44.802;10.332;2023-02-01T10:59:19;12.82;;;7.38;;
78120;SDS011;67375;44.802;10.332;2023-02-01T11:01:48;13.25;;;6.85;;
78120;SDS011;67375;44.802;10.332;2023-02-01T11:04:16;17.33;;;8.02;;
78120;SDS011;67375;44.802;10.332;2023-02-01T11:06:45;14.68;;;7.78;;
78120;SDS011;67375;44.802;10.332;2023-02-01T11:09:20;14.75;;;7.70;;
78120;SDS011;67375;44.802;10.332;2023-02-01T11:14:22;14.30;;;6.90;;
78120;SDS011;67375;44.802;10.332;2023-02-01T11:16:58;12.88;;;7.55;;
78120;SDS011;67375;44.802;10.332;2023-02-01T11:19:28;13.93;;;7.50;;
78120;SDS011;67375;44.802;10.332;2023-02-01T11:21:57;12.90;;;7.35;;
78120;SDS011;67375;44.802;10.332;2023-02-01T11:24:25;14.20;;;7.28;;
78120;SDS011;67375;44.802;10.332;2023-02-01T11:29:24;13.75;;;6.05;;
78120;SDS011;67375;44.802;10.332;2023-02-01T11:31:57;10.82;;;6.07;;
78120;SDS011;67375;44.802;10.332;2023-02-01T11:34:25;11.15;;;6.78;;
78120;SDS011;67375;44.802;10.332;2023-02-01T11:36:56;13.90;;;7.18;;
78120;SDS011;67375;44.802;10.332;2023-02-01T11:39:26;11.30;;;6.00;;
78120;SDS011;67375;44.802;10.332;2023-02-01T11:42:14;12.50;;;5.97;;
78120;SDS011;67375;44.802;10.332;2023-02-01T11:44:45;11.77;;;6.25;;
78120;SDS011;67375;44.802;10.332;2023-02-01T11:49:54;12.60;;;6.78;;
78120;SDS011;67375;44.802;10.332;2023-02-01T12:00:59;10.77;;;6.28;;
78120;SDS011;67375;44.802;10.332;2023-02-01T12:13:13;12.52;;;5.97;;
78120;SDS011;67375;44.802;10.332;2023-02-01T12:21:42;12.23;;;6.05;;
78120;SDS011;67375;44.802;10.332;2023-02-01T12:39:51;13.95;;;6.05;;
78120;SDS011;67375;44.802;10.332;2023-02-01T12:42:29;13.18;;;6.15;;
78120;SDS011;67375;44.802;10.332;2023-02-01T12:45:13;14.13;;;6.45;;
78120;SDS011;67375;44.802;10.332;2023-02-01T12:47:48;12.85;;;6.63;;
78120;SDS011;67375;44.802;10.332;2023-02-01T12:50:18;12.70;;;6.47;;
78120;SDS011;67375;44.802;10.332;2023-02-01T12:52:53;13.18;;;6.05;;
78120;SDS011;67375;44.802;10.332;2023-02-01T12:55:42;11.55;;;5.10;;
78120;SDS011;67375;44.802;10.332;2023-02-01T13:01:53;13.75;;;6.55;;
78120;SDS011;67375;44.802;10.332;2023-02-01T13:04:03;11.57;;;6.05;;
78120;SDS011;67375;44.802;10.332;2023-02-01T13:06:38;10.95;;;5.43;;
78120;SDS011;67375;44.802;10.332;2023-02-01T13:11:49;10.73;;;6.22;;
78120;SDS011;67375;44.802;10.332;2023-02-01T13:17:05;11.00;;;5.35;;
78120;SDS011;67375;44.802;10.332;2023-02-01T13:22:41;12.45;;;5.57;;
78120;SDS011;67375;44.802;10.332;2023-02-01T13:25:15;13.20;;;5.03;;
78120;SDS011;67375;44.802;10.332;2023-02-01T13:27:46;11.65;;;4.85;;
78120;SDS011;67375;44.802;10.332;2023-02-01T13:30:18;12.98;;;4.88;;
78120;SDS011;67375;44.802;10.332;2023-02-01T13:33:02;10.65;;;4.93;;
78120;SDS011;67375;44.802;10.332;2023-02-01T13:43:54;9.98;;;3.70;;
78120;SDS011;67375;44.802;10.332;2023-02-01T13:46:24;11.55;;;4.13;;
78120;SDS011;67375;44.802;10.332;2023-02-01T13:48:57;9.02;;;4.97;;
78120;SDS011;67375;44.802;10.332;2023-02-01T13:51:37;7.50;;;3.85;;
78120;SDS011;67375;44.802;10.332;2023-02-01T13:54:07;10.27;;;4.13;;
78120;SDS011;67375;44.802;10.332;2023-02-01T13:59:46;6.95;;;3.30;;
78120;SDS011;67375;44.802;10.332;2023-02-01T14:05:09;7.38;;;3.65;;
78120;SDS011;67375;44.802;10.332;2023-02-01T14:07:34;8.02;;;3.58;;
78120;SDS011;67375;44.802;10.332;2023-02-01T14:10:45;6.60;;;3.28;;
78120;SDS011;67375;44.802;10.332;2023-02-01T14:13:04;11.45;;;4.05;;
78120;SDS011;67375;44.802;10.332;2023-02-01T14:15:37;8.35;;;3.42;;
78120;SDS011;67375;44.802;10.332;2023-02-01T14:18:02;9.50;;;3.15;;
78120;SDS011;67375;44.802;10.332;2023-02-01T14:21:22;7.15;;;2.95;;
78120;SDS011;67375;44.802;10.332;2023-02-01T14:44:55;8.70;;;3.53;;
78120;SDS011;67375;44.802;10.332;2023-02-01T14:47:41;7.90;;;3.55;;
78120;SDS011;67375;44.802;10.332;2023-02-01T14:52:33;8.38;;;3.22;;
78120;SDS011;67375;44.802;10.332;2023-02-01T14:55:15;6.22;;;2.58;;
78120;SDS011;67375;44.802;10.332;2023-02-01T14:57:46;9.43;;;2.72;;
78120;SDS011;67375;44.802;10.332;2023-02-01T15:00:18;7.05;;;2.78;;
78120;SDS011;67375;44.802;10.332;2023-02-01T15:02:49;7.32;;;3.35;;
78120;SDS011;67375;44.802;10.332;2023-02-01T15:05:24;7.82;;;2.75;;
78120;SDS011;67375;44.802;10.332;2023-02-01T15:07:51;7.50;;;3.65;;
78120;SDS011;67375;44.802;10.332;2023-02-01T15:10:18;8.73;;;2.33;;
78120;SDS011;67375;44.802;10.332;2023-02-01T15:12:46;8.32;;;3.97;;
78120;SDS011;67375;44.802;10.332;2023-02-01T15:15:17;7.75;;;2.92;;
78120;SDS011;67375;44.802;10.332;2023-02-01T15:17:58;11.18;;;3.35;;
78120;SDS011;67375;44.802;10.332;2023-02-01T15:20:31;7.20;;;2.95;;
78120;SDS011;67375;44.802;10.332;2023-02-01T15:22:58;11.88;;;3.40;;
78120;SDS011;67375;44.802;10.332;2023-02-01T15:25:26;10.75;;;3.15;;
78120;SDS011;67375;44.802;10.332;2023-02-01T15:27:56;9.00;;;3.08;;
78120;SDS011;67375;44.802;10.332;2023-02-01T15:30:26;7.57;;;2.80;;
78120;SDS011;67375;44.802;10.332;2023-02-01T15:33:06;7.35;;;3.17;;
78120;SDS011;67375;44.802;10.332;2023-02-01T15:35:46;6.85;;;2.30;;
78120;SDS011;67375;44.802;10.332;2023-02-01T15:46:10;6.75;;;2.80;;
78120;SDS011;67375;44.802;10.332;2023-02-01T15:48:45;6.05;;;2.50;;
78120;SDS011;67375;44.802;10.332;2023-02-01T15:51:20;7.95;;;2.25;;
78120;SDS011;67375;44.802;10.332;2023-02-01T15:54:13;7.80;;;3.10;;
78120;SDS011;67375;44.802;10.332;2023-02-01T15:56:44;6.97;;;2.67;;
78120;SDS011;67375;44.802;10.332;2023-02-01T15:59:18;8.20;;;2.90;;
78120;SDS011;67375;44.802;10.332;2023-02-01T16:01:46;6.65;;;2.45;;
78120;SDS011;67375;44.802;10.332;2023-02-01T16:04:22;5.82;;;3.05;;
78120;SDS011;67375;44.802;10.332;2023-02-01T16:09:20;7.40;;;2.85;;
78120;SDS011;67375;44.802;10.332;2023-02-01T16:12:01;9.82;;;2.83;;
78120;SDS011;67375;44.802;10.332;2023-02-01T16:14:28;6.95;;;3.15;;
78120;SDS011;67375;44.802;10.332;2023-02-01T16:16:56;8.13;;;3.03;;
78120;SDS011;67375;44.802;10.332;2023-02-01T16:19:23;5.45;;;2.22;;
78120;SDS011;67375;44.802;10.332;2023-02-01T16:21:53;9.38;;;2.58;;
78120;SDS011;67375;44.802;10.332;2023-02-01T16:24:19;8.27;;;2.55;;
78120;SDS011;67375;44.802;10.332;2023-02-01T16:26:47;6.30;;;2.30;;
78120;SDS011;67375;44.802;10.332;2023-02-01T16:29:12;7.35;;;2.63;;
78120;SDS011;67375;44.802;10.332;2023-02-01T16:31:38;6.88;;;2.50;;
78120;SDS011;67375;44.802;10.332;2023-02-01T16:34:04;6.65;;;2.53;;
78120;SDS011;67375;44.802;10.332;2023-02-01T16:36:31;5.20;;;2.13;;
78120;SDS011;67375;44.802;10.332;2023-02-01T16:38:57;8.13;;;3.55;;
78120;SDS011;67375;44.802;10.332;2023-02-01T16:41:23;8.10;;;3.28;;
78120;SDS011;67375;44.802;10.332;2023-02-01T16:43:51;5.97;;;2.92;;
78120;SDS011;67375;44.802;10.332;2023-02-01T16:46:18;6.00;;;2.38;;
78120;SDS011;67375;44.802;10.332;2023-02-01T16:48:51;7.50;;;2.42;;
78120;SDS011;67375;44.802;10.332;2023-02-01T16:51:19;6.28;;;2.20;;
78120;SDS011;67375;44.802;10.332;2023-02-01T16:53:45;6.47;;;2.58;;
78120;SDS011;67375;44.802;10.332;2023-02-01T16:56:15;5.63;;;2.55;;
78120;SDS011;67375;44.802;10.332;2023-02-01T16:58:43;7.28;;;3.25;;
78120;SDS011;67375;44.802;10.332;2023-02-01T17:01:12;6.65;;;2.58;;
78120;SDS011;67375;44.802;10.332;2023-02-01T17:03:40;6.15;;;2.53;;
78120;SDS011;67375;44.802;10.332;2023-02-01T17:06:10;6.85;;;2.83;;
78120;SDS011;67375;44.802;10.332;2023-02-01T17:08:40;5.40;;;2.00;;
78120;SDS011;67375;44.802;10.332;2023-02-01T17:11:07;5.40;;;2.38;;
78120;SDS011;67375;44.802;10.332;2023-02-01T17:13:35;7.13;;;2.60;;
78120;SDS011;67375;44.802;10.332;2023-02-01T17:16:04;6.43;;;2.47;;
78120;SDS011;67375;44.802;10.332;2023-02-01T17:18:35;6.57;;;2.70;;
78120;SDS011;67375;44.802;10.332;2023-02-01T17:21:01;7.40;;;2.63;;
78120;SDS011;67375;44.802;10.332;2023-02-01T17:23:28;5.90;;;1.98;;
78120;SDS011;67375;44.802;10.332;2023-02-01T17:25:55;6.88;;;2.38;;
78120;SDS011;67375;44.802;10.332;2023-02-01T17:28:21;6.22;;;2.35;;
78120;SDS011;67375;44.802;10.332;2023-02-01T17:30:47;7.10;;;2.78;;
78120;SDS011;67375;44.802;10.332;2023-02-01T17:33:33;6.07;;;3.13;;
78120;SDS011;67375;44.802;10.332;2023-02-01T17:36:00;6.53;;;2.70;;
78120;SDS011;67375;44.802;10.332;2023-02-01T17:40:53;6.03;;;2.38;;
78120;SDS011;67375;44.802;10.332;2023-02-01T17:43:22;7.40;;;2.70;;